Time;durP1;ratioP1;P1;durP2;ratioP2;P2;SDS_P1;SDS_P2;PMS_P1;PMS_P2;Temp;Humidity;BMP_temperature;BMP_pressure;BME280_temperature;BME280_humidity;BME280_pressure;Samples;Min_cycle;Max_cycle;Signal;HPM_P1;HPM_P2
2023/08/18 00:01:42;;;;;;;;;3.00;2.67;;;;;-143.90;93.29;74483.84;4737162;28;102518;-75
2023/08/18 00:04:17;;;;;;;;;3.00;3.00;;;;;-143.90;92.08;74477.63;4621008;28;103053;-74
2023/08/18 00:06:50;;;;;;;;;3.00;2.00;;;;;-143.90;92.99;74487.97;4688149;28;102647;-75
2023/08/18 00:09:26;;;;;;;;;3.33;3.00;;;;;-143.90;93.28;74492.09;4745002;28;104292;-75
2023/08/18 00:12:05;;;;;;;;;3.33;2.67;;;;;-143.90;93.53;74479.69;4698399;28;102835;-75
2023/08/18 00:14:44;;;;;;;;;2.00;2.00;;;;;-143.90;92.89;74485.91;4702440;28;102320;-75
2023/08/18 00:17:22;;;;;;;;;2.00;2.00;;;;;-143.90;92.45;74494.16;4700596;28;103292;-75
2023/08/18 00:20:08;;;;;;;;;1.67;1.67;;;;;-143.90;92.38;74481.78;4711027;28;103417;-75
2023/08/18 00:22:36;;;;;;;;;2.00;2.00;;;;;-143.90;92.04;74481.78;4705751;28;102081;-75
2023/08/18 00:25:08;;;;;;;;;3.00;3.00;;;;;-143.90;91.45;74502.44;4774246;28;102365;-75
2023/08/18 00:27:42;;;;;;;;;2.33;2.33;;;;;-143.90;91.18;74514.84;4754249;28;102717;-75
2023/08/18 00:30:14;;;;;;;;;9.67;8.67;;;;;-143.90;91.68;74514.84;4714922;28;109963;-75
2023/08/18 00:32:55;;;;;;;;;6.67;6.00;;;;;-143.90;91.61;74533.44;4799557;28;102379;-75
2023/08/18 00:35:22;;;;;;;;;4.67;4.00;;;;;-143.90;92.18;74531.38;4793542;28;102228;-75
2023/08/18 00:37:55;;;;;;;;;3.00;3.00;;;;;-143.90;92.31;74531.38;4760258;28;104141;-75
2023/08/18 00:40:28;;;;;;;;;3.33;3.33;;;;;-143.90;92.83;74535.50;4751845;28;104288;-75
2023/08/18 00:43:02;;;;;;;;;7.33;6.00;;;;;-143.90;91.79;74539.66;4810927;28;102582;-75
2023/08/18 00:45:35;;;;;;;;;6.67;6.00;;;;;-143.90;91.56;74541.72;4780260;28;102620;-75
2023/08/18 00:48:14;;;;;;;;;4.67;4.67;;;;;-143.90;92.18;74535.50;4725897;28;104715;-74
2023/08/18 00:50:56;;;;;;;;;4.33;4.00;;;;;-143.90;92.00;74543.78;4791653;28;105079;-75
2023/08/18 00:53:23;;;;;;;;;3.00;3.00;;;;;-143.90;91.92;74535.50;4741013;28;104384;-75
2023/08/18 00:55:58;;;;;;;;;2.00;2.00;;;;;-143.90;91.60;74545.84;4733497;28;102184;-75
2023/08/18 00:58:27;;;;;;;;;1.67;1.67;;;;;-143.90;91.70;74539.66;4770573;28;102303;-75
2023/08/18 01:01:02;;;;;;;;;5.00;5.00;;;;;-143.90;91.68;74547.91;4736489;28;109104;-75
2023/08/18 01:03:35;;;;;;;;;4.00;4.00;;;;;-143.90;92.21;74564.44;4735379;28;102649;-75
2023/08/18 01:06:05;;;;;;;;;2.67;2.67;;;;;-143.90;92.52;74547.91;4701385;28;102213;-75
2023/08/18 01:08:38;;;;;;;;;2.00;2.00;;;;;-143.90;92.93;74539.66;4725398;28;103867;-74
2023/08/18 01:11:29;;;;;;;;;3.00;2.00;;;;;-143.90;92.59;74531.38;4737093;28;108368;-75
2023/08/18 01:14:13;;;;;;;;;3.33;2.67;;;;;-143.90;92.03;74527.25;4766079;28;102677;-75
2023/08/18 01:16:50;;;;;;;;;6.00;6.00;;;;;-143.90;91.46;74531.38;4705312;28;102621;-75
2023/08/18 01:19:31;;;;;;;;;5.00;4.00;;;;;-143.90;91.09;74539.66;4741481;28;102339;-75
2023/08/18 01:21:59;;;;;;;;;3.33;3.00;;;;;-143.90;91.65;74545.84;4694643;28;103774;-75
2023/08/18 01:24:31;;;;;;;;;2.67;2.67;;;;;-143.90;92.20;74537.56;4727554;28;102091;-75
2023/08/18 01:27:09;;;;;;;;;3.00;2.33;;;;;-143.90;92.52;74539.66;4760210;28;102744;-75
2023/08/18 01:29:41;;;;;;;;;4.00;4.00;;;;;-143.90;93.01;74552.03;4712257;28;105102;-75
2023/08/18 01:32:13;;;;;;;;;1.67;1.67;;;;;-143.90;93.41;74547.91;4737398;28;108915;-75
2023/08/18 01:35:08;;;;;;;;;2.00;2.00;;;;;-143.90;93.71;74556.19;4669219;28;102570;-75
2023/08/18 01:37:53;;;;;;;;;3.67;3.00;;;;;-143.90;93.56;74549.97;4700621;28;103711;-75
2023/08/18 01:40:48;;;;;;;;;3.00;3.00;;;;;-143.90;93.41;74541.72;4735741;28;102527;-75
2023/08/18 01:43:24;;;;;;;;;2.67;2.67;;;;;-143.90;92.80;74543.78;4706092;28;108617;-74
2023/08/18 01:45:54;;;;;;;;;3.00;3.00;;;;;-143.90;92.78;74547.91;4682128;28;105438;-75
2023/08/18 01:48:24;;;;;;;;;4.00;2.67;;;;;-143.90;92.48;74560.31;4722705;28;103210;-75
2023/08/18 01:50:55;;;;;;;;;3.00;3.00;;;;;-143.90;92.05;74568.59;4706032;28;103510;-75
2023/08/18 01:53:33;;;;;;;;;4.00;4.00;;;;;-143.90;93.48;74585.13;4751566;28;104744;-74
2023/08/18 01:56:05;;;;;;;;;3.00;3.00;;;;;-143.90;94.05;74576.84;4734817;28;104298;-74
2023/08/18 01:58:42;;;;;;;;;4.33;4.33;;;;;-143.90;94.16;74578.91;4776360;28;102302;-75
2023/08/18 02:01:25;;;;;;;;;3.33;3.33;;;;;-143.90;94.33;74589.25;4801386;28;102438;-75
2023/08/18 02:03:57;;;;;;;;;5.33;3.33;;;;;-143.90;94.35;74593.38;4731477;28;103246;-75
2023/08/18 02:06:26;;;;;;;;;3.00;3.00;;;;;-143.90;94.82;74597.53;4785492;28;102983;-75
2023/08/18 02:09:05;;;;;;;;;2.67;2.67;;;;;-143.90;94.55;74601.66;4733741;28;103538;-75
2023/08/18 02:11:37;;;;;;;;;4.00;3.00;;;;;-143.90;94.26;74585.13;4728224;28;102373;-75
2023/08/18 02:14:07;;;;;;;;;2.00;2.00;;;;;-143.90;94.25;74589.25;4693864;28;103443;-75
2023/08/18 02:16:36;;;;;;;;;2.00;2.00;;;;;-143.90;94.03;74581.00;4726383;28;104127;-75
2023/08/18 02:19:15;;;;;;;;;2.00;1.33;;;;;-143.90;93.53;74591.31;4709388;28;103900;-75
2023/08/18 02:21:44;;;;;;;;;2.00;1.33;;;;;-143.90;93.67;74595.47;4749914;28;102702;-75
2023/08/18 02:24:15;;;;;;;;;3.00;3.00;;;;;-143.90;93.77;74591.31;4728724;28;104558;-75
2023/08/18 02:26:49;;;;;;;;;3.00;2.00;;;;;-143.90;94.39;74593.38;4719424;28;102664;-75
2023/08/18 02:29:21;;;;;;;;;2.00;2.00;;;;;-143.90;94.51;74595.47;4759850;28;102181;-77
2023/08/18 02:31:56;;;;;;;;;2.00;2.00;;;;;-143.90;94.11;74587.19;4751064;28;103248;-75
2023/08/18 02:34:25;;;;;;;;;3.00;3.00;;;;;-143.90;94.03;74597.53;4762437;28;103309;-75
2023/08/18 02:36:55;;;;;;;;;3.67;3.67;;;;;-143.90;94.07;74589.25;4716347;28;102879;-74
2023/08/18 02:39:26;;;;;;;;;2.00;2.00;;;;;-143.90;94.56;74574.78;4734454;28;103819;-74
2023/08/18 02:42:05;;;;;;;;;2.00;2.00;;;;;-143.90;95.08;74576.84;4760785;28;103831;-75
2023/08/18 02:44:37;;;;;;;;;3.33;3.33;;;;;-143.90;95.12;74585.13;4717416;28;109144;-75
2023/08/18 02:47:09;;;;;;;;;3.33;3.33;;;;;-143.90;95.25;74585.13;4770513;28;102405;-75
2023/08/18 02:49:47;;;;;;;;;3.00;3.00;;;;;-143.90;95.33;74587.19;4724707;28;103430;-75
2023/08/18 02:52:23;;;;;;;;;4.67;4.67;;;;;-143.90;95.37;74570.66;4685675;28;103728;-75
2023/08/18 02:55:08;;;;;;;;;2.33;2.33;;;;;-143.90;95.33;74576.84;4736661;28;104750;-75
2023/08/18 02:57:40;;;;;;;;;3.00;3.00;;;;;-143.90;95.81;74572.72;4672903;28;103164;-75
2023/08/18 03:00:08;;;;;;;;;3.00;3.00;;;;;-143.90;95.36;74572.72;4714481;28;109647;-75
2023/08/18 03:02:42;;;;;;;;;4.00;3.67;;;;;-143.90;95.23;74576.84;4761423;28;103089;-75
2023/08/18 03:05:24;;;;;;;;;4.00;4.00;;;;;-143.90;95.00;74574.78;4739856;28;108467;-75
2023/08/18 03:08:00;;;;;;;;;4.00;4.00;;;;;-143.90;95.23;74576.84;4823811;28;102474;-75
2023/08/18 03:10:29;;;;;;;;;5.00;5.00;;;;;-143.90;94.84;74572.72;4874164;28;104752;-75
2023/08/18 03:12:56;;;;;;;;;4.00;4.00;;;;;-143.90;95.54;74570.66;4852856;28;103636;-74
2023/08/18 03:15:31;;;;;;;;;6.00;5.33;;;;;-143.90;95.62;74572.72;4830712;28;105350;-75
2023/08/18 03:18:00;;;;;;;;;6.00;6.00;;;;;-143.90;95.08;74570.66;4788463;28;103533;-74
2023/08/18 03:20:29;;;;;;;;;4.00;4.00;;;;;-143.90;95.77;74556.19;4867365;28;103137;-75
2023/08/18 03:22:58;;;;;;;;;4.00;4.00;;;;;-143.90;95.26;74556.19;4862257;28;103093;-75
2023/08/18 03:25:28;;;;;;;;;3.00;3.00;;;;;-143.90;95.27;74547.91;4801249;28;105177;-74
2023/08/18 03:27:54;;;;;;;;;2.67;2.00;;;;;-143.90;94.43;74552.03;4806583;28;103000;-75
2023/08/18 03:30:38;;;;;;;;;4.00;3.00;;;;;-143.90;94.10;74556.19;4819031;28;103547;-74
2023/08/18 03:33:06;;;;;;;;;5.00;5.00;;;;;-143.90;93.46;74564.44;4816460;28;103109;-75
2023/08/18 03:35:35;;;;;;;;;5.00;5.00;;;;;-143.90;93.65;74572.72;4842839;28;103410;-75
2023/08/18 03:38:04;;;;;;;;;5.00;4.00;;;;;-143.90;94.08;74558.25;4797483;28;102330;-75
2023/08/18 03:40:37;;;;;;;;;4.33;3.00;;;;;-143.90;93.76;74568.59;4761707;28;102370;-75
2023/08/18 03:43:04;;;;;;;;;3.00;3.00;;;;;-143.90;93.13;74558.25;4760021;28;102983;-75
2023/08/18 03:45:33;;;;;;;;;2.00;1.00;;;;;-143.90;92.85;74560.31;4789148;28;103880;-74
2023/08/18 03:48:00;;;;;;;;;3.00;3.00;;;;;-143.90;92.67;74560.31;4788109;28;102156;-75
2023/08/18 03:50:37;;;;;;;;;5.00;4.00;;;;;-143.90;92.59;74556.19;4793672;28;102176;-75
2023/08/18 03:53:08;;;;;;;;;3.33;3.33;;;;;-143.90;92.10;74564.44;4803571;28;102392;-75
2023/08/18 03:55:35;;;;;;;;;3.00;3.00;;;;;-143.90;91.79;74572.72;4794082;28;103505;-75
2023/08/18 03:58:04;;;;;;;;;1.00;1.00;;;;;-143.90;92.10;74572.72;4862020;28;103501;-75
2023/08/18 04:00:33;;;;;;;;;4.00;4.00;;;;;-143.90;92.87;74578.91;4819697;28;102250;-75
2023/08/18 04:03:03;;;;;;;;;4.67;4.33;;;;;-143.90;93.63;74574.78;4791635;28;102469;-74
2023/08/18 04:05:44;;;;;;;;;4.67;4.00;;;;;-143.90;93.50;74576.84;4842305;28;110348;-75
2023/08/18 04:08:12;;;;;;;;;5.00;4.00;;;;;-143.90;94.00;74572.72;4810703;28;102533;-75
2023/08/18 04:10:39;;;;;;;;;3.33;3.33;;;;;-143.90;94.04;74564.44;4844242;28;102419;-75
2023/08/18 04:13:07;;;;;;;;;6.33;5.00;;;;;-143.90;93.46;74568.59;4839703;28;102428;-75
2023/08/18 04:15:34;;;;;;;;;6.00;5.33;;;;;-143.90;93.90;74568.59;4813273;28;105502;-74
2023/08/18 04:18:01;;;;;;;;;5.00;5.00;;;;;-143.90;93.83;74566.53;4825144;28;102502;-75
2023/08/18 04:20:29;;;;;;;;;4.33;4.33;;;;;-143.90;94.19;74564.44;4827091;28;102075;-75
2023/08/18 04:23:03;;;;;;;;;4.00;4.00;;;;;-143.90;94.32;74547.91;4807731;28;104806;-75
2023/08/18 04:25:35;;;;;;;;;4.33;4.33;;;;;-143.90;94.08;74552.03;4801475;28;104047;-75
2023/08/18 04:28:05;;;;;;;;;4.00;4.00;;;;;-143.90;93.78;74547.91;4830980;28;102308;-75
2023/08/18 04:30:36;;;;;;;;;4.00;3.00;;;;;-143.90;93.94;74537.56;4772509;28;103453;-75
2023/08/18 04:33:20;;;;;;;;;2.33;2.33;;;;;-143.90;93.74;74535.50;4788898;28;102359;-75
2023/08/18 04:35:52;;;;;;;;;2.67;2.67;;;;;-143.90;93.47;74535.50;4802227;28;103267;-74
2023/08/18 04:38:19;;;;;;;;;2.00;2.00;;;;;-143.90;93.90;74531.38;4830651;28;102552;-75
2023/08/18 04:40:58;;;;;;;;;5.33;5.00;;;;;-143.90;93.21;74537.56;4825039;28;102041;-75
2023/08/18 04:43:28;;;;;;;;;1.67;1.33;;;;;-143.90;92.83;74535.50;4865420;28;103015;-75
2023/08/18 04:45:58;;;;;;;;;3.00;3.00;;;;;-143.90;93.06;74521.03;4853315;28;103279;-75
2023/08/18 04:48:29;;;;;;;;;3.00;3.00;;;;;-143.90;92.86;74518.97;4857242;28;102541;-75
2023/08/18 04:51:00;;;;;;;;;2.00;2.00;;;;;-143.90;92.39;74523.09;4862574;28;102477;-74
2023/08/18 04:53:34;;;;;;;;;4.00;4.00;;;;;-143.90;92.33;74518.97;4836387;28;102405;-75
2023/08/18 04:56:04;;;;;;;;;4.00;4.00;;;;;-143.90;92.17;74518.97;4878658;28;103382;-75
2023/08/18 04:58:33;;;;;;;;;4.33;4.00;;;;;-143.90;92.10;74525.19;4827017;28;102454;-75
2023/08/18 05:01:06;;;;;;;;;7.33;6.00;;;;;-143.90;92.35;74508.63;4818761;28;103795;-75
2023/08/18 05:03:36;;;;;;;;;3.00;3.00;;;;;-143.90;91.51;74510.72;4813237;28;105005;-75
2023/08/18 05:06:12;;;;;;;;;6.00;6.00;;;;;-143.90;91.58;74523.09;4844947;28;104021;-75
2023/08/18 05:08:45;;;;;;;;;5.00;5.00;;;;;-143.90;91.75;74514.84;4809933;28;102424;-75
2023/08/18 05:11:13;;;;;;;;;5.00;5.00;;;;;-143.90;92.19;74514.84;4818538;28;103875;-76
2023/08/18 05:13:41;;;;;;;;;6.00;5.33;;;;;-143.90;92.38;74508.63;4837543;28;102767;-75
2023/08/18 05:16:09;;;;;;;;;4.00;4.00;;;;;-143.90;92.04;74510.72;4812847;28;110181;-75
2023/08/18 05:18:36;;;;;;;;;6.00;5.00;;;;;-143.90;92.66;74502.44;4864677;28;102156;-75
2023/08/18 05:21:06;;;;;;;;;5.33;5.33;;;;;-143.90;92.78;74487.97;4868114;28;102540;-75
2023/08/18 05:23:33;;;;;;;;;7.00;6.00;;;;;-143.90;92.89;74473.50;4864459;28;104951;-75
2023/08/18 05:26:00;;;;;;;;;9.00;7.00;;;;;-143.90;93.13;74463.16;4870579;28;104161;-75
2023/08/18 05:28:32;;;;;;;;;11.00;10.00;;;;;-143.90;93.75;74440.44;4883910;28;102172;-75
2023/08/18 05:31:00;;;;;;;;;7.00;6.33;;;;;-143.90;92.45;74421.81;4883813;28;102190;-76
2023/08/18 05:33:27;;;;;;;;;6.00;6.00;;;;;-143.90;91.46;74397.03;4871080;28;102328;-76
2023/08/18 05:35:57;;;;;;;;;6.00;6.00;;;;;-143.90;88.23;74397.03;4825959;28;103973;-75
2023/08/18 05:38:32;;;;;;;;;7.67;7.67;;;;;-143.90;88.50;74378.41;4863184;28;104087;-75
2023/08/18 05:41:07;;;;;;;;;8.00;7.00;;;;;-143.90;86.67;74368.09;4844185;28;102674;-75
2023/08/18 05:43:38;;;;;;;;;14.00;10.33;;;;;-143.90;86.59;74330.88;4840768;28;102538;-75
2023/08/18 05:46:05;;;;;;;;;10.00;9.00;;;;;-143.90;84.47;74304.00;4854243;28;103748;-75
2023/08/18 05:48:33;;;;;;;;;12.67;12.33;;;;;-143.90;84.81;74270.94;4842685;28;102402;-75
2023/08/18 05:51:04;;;;;;;;;12.67;11.33;;;;;-143.90;84.67;74252.34;4851271;28;102415;-74
2023/08/18 05:53:32;;;;;;;;;15.00;15.00;;;;;-143.90;85.18;74225.47;4828545;28;102176;-75
2023/08/18 05:55:59;;;;;;;;;9.33;9.33;;;;;-143.90;82.39;74229.59;4865237;28;104527;-74
2023/08/18 05:58:28;;;;;;;;;8.00;8.00;;;;;-143.90;82.17;74237.88;4861166;28;102529;-74
2023/08/18 06:00:55;;;;;;;;;10.67;10.67;;;;;-143.90;83.49;74213.06;4857911;28;102369;-74
2023/08/18 06:03:22;;;;;;;;;14.00;13.00;;;;;-143.90;83.78;74177.94;4869161;28;102528;-75
2023/08/18 06:05:52;;;;;;;;;11.67;11.67;;;;;-143.90;82.75;74146.91;4853214;28;103480;-74
2023/08/18 06:08:21;;;;;;;;;11.33;9.67;;;;;-143.90;81.94;74109.72;4852257;28;102657;-74
2023/08/18 06:10:48;;;;;;;;;9.67;9.00;;;;;-143.90;80.34;74101.44;4883671;28;103139;-74
2023/08/18 06:13:14;;;;;;;;;11.33;10.33;;;;;-143.90;79.75;74084.91;4861320;28;104205;-75
2023/08/18 06:15:42;;;;;;;;;14.00;14.00;;;;;-143.90;78.66;74095.25;4892058;28;104091;-74
2023/08/18 06:18:09;;;;;;;;;20.67;19.00;;;;;-143.90;78.99;74060.13;4879614;28;103435;-75
2023/08/18 06:20:36;;;;;;;;;13.67;13.00;;;;;-143.90;79.46;74022.91;4861181;28;102077;-75
2023/08/18 06:23:09;;;;;;;;;14.33;12.67;;;;;-143.90;77.72;74002.25;4883720;28;102362;-74
2023/08/18 06:25:39;;;;;;;;;14.67;14.00;;;;;-143.90;79.11;73960.91;4869581;28;103206;-74
2023/08/18 06:28:09;;;;;;;;;18.00;15.33;;;;;-143.90;78.45;73936.09;4865561;28;102893;-75
2023/08/18 06:30:42;;;;;;;;;11.00;11.00;;;;;-143.90;75.67;73944.38;4843409;28;102434;-74
2023/08/18 06:33:26;;;;;;;;;9.00;9.00;;;;;-143.90;75.87;73969.19;4742476;28;102306;-75
2023/08/18 06:36:02;;;;;;;;;10.67;10.67;;;;;-143.90;76.62;74014.66;4800878;28;108625;-75
2023/08/18 06:38:38;;;;;;;;;18.33;17.00;;;;;-143.90;75.56;73985.72;4767279;28;102665;-75
2023/08/18 06:41:08;;;;;;;;;10.33;9.00;;;;;-143.90;76.42;73965.03;4774129;28;102408;-75
2023/08/18 06:43:42;;;;;;;;;12.00;12.00;;;;;-143.90;76.56;73946.44;4798318;28;103495;-75
2023/08/18 06:46:09;;;;;;;;;12.67;12.67;;;;;-143.90;75.82;73940.25;4756510;28;106374;-75
2023/08/18 06:48:54;;;;;;;;;15.33;13.33;;;;;-143.90;74.79;73938.19;4694172;28;102097;-75
2023/08/18 06:51:30;;;;;;;;;12.00;12.00;;;;;-143.90;72.19;73977.44;4779405;28;104406;-75
2023/08/18 06:54:30;;;;;;;;;13.67;12.67;;;;;-143.90;77.01;73942.31;4741263;28;102769;-75
2023/08/18 06:57:08;;;;;;;;;9.67;9.67;;;;;-143.90;76.23;73934.03;4793459;28;109952;-75
2023/08/18 06:59:44;;;;;;;;;8.00;8.00;;;;;-143.90;70.55;73948.50;4716392;28;103117;-76
2023/08/18 07:02:13;;;;;;;;;8.00;8.00;;;;;-143.90;73.39;73923.72;4723792;28;103242;-75
2023/08/18 07:05:06;;;;;;;;;11.67;11.00;;;;;-143.90;71.03;73896.84;4744826;28;103481;-75
2023/08/18 07:07:34;;;;;;;;;11.67;10.00;;;;;-143.90;71.05;73905.09;4750747;28;105212;-75
2023/08/18 07:10:24;;;;;;;;;14.00;12.00;;;;;-143.90;71.54;73890.63;4776373;28;103843;-71
2023/08/18 07:13:03;;;;;;;;;10.00;10.00;;;;;-143.90;70.87;73882.38;4711921;28;103075;-75
2023/08/18 07:15:37;;;;;;;;;14.00;14.00;;;;;-143.90;72.21;73874.09;4798578;28;104444;-75
2023/08/18 07:18:13;;;;;;;;;11.67;10.33;;;;;-143.90;71.42;73886.50;4783267;28;105650;-75
2023/08/18 07:20:49;;;;;;;;;12.00;11.00;;;;;-143.90;71.36;73886.50;4771709;28;102251;-75
2023/08/18 07:23:18;;;;;;;;;12.00;11.67;;;;;-143.90;72.51;73940.25;4765159;28;102172;-75
2023/08/18 07:25:52;;;;;;;;;11.00;11.00;;;;;-143.90;72.87;73923.72;4772729;28;102669;-75
2023/08/18 07:28:19;;;;;;;;;7.00;7.00;;;;;-143.90;70.99;73886.50;4745872;28;107871;-75
2023/08/18 07:30:46;;;;;;;;;9.67;8.00;;;;;-143.90;69.61;73865.84;4842107;28;102342;-74
2023/08/18 07:33:14;;;;;;;;;9.00;9.00;;;;;-143.90;72.33;73836.91;4755556;28;102685;-74
2023/08/18 07:35:46;;;;;;;;;12.00;12.00;;;;;-143.90;71.42;73824.50;4807422;28;102535;-74
2023/08/18 07:38:17;;;;;;;;;7.00;7.00;;;;;-143.90;70.89;73816.25;4836529;28;108592;-74
2023/08/18 07:40:48;;;;;;;;;7.00;7.00;;;;;-143.90;70.18;73807.97;4819984;28;102297;-74
2023/08/18 07:43:15;;;;;;;;;5.00;5.00;;;;;-143.90;69.72;73791.44;4845363;28;102154;-74
2023/08/18 07:45:45;;;;;;;;;9.00;8.00;;;;;-143.90;66.38;73803.84;4814066;28;103554;-74
2023/08/18 07:48:21;;;;;;;;;9.00;7.00;;;;;-143.90;68.06;73781.09;4841786;28;103374;-74
2023/08/18 07:50:48;;;;;;;;;8.00;7.00;;;;;-143.90;68.70;73758.38;4812829;28;102144;-74
2023/08/18 07:53:27;;;;;;;;;6.00;5.00;;;;;-143.90;66.74;73756.31;4834256;28;102620;-75
2023/08/18 07:55:54;;;;;;;;;5.00;5.00;;;;;-143.90;66.31;73748.03;4812296;28;102303;-74
2023/08/18 07:58:22;;;;;;;;;3.00;3.00;;;;;-143.90;66.07;73733.56;4816450;28;103559;-74
2023/08/18 08:00:56;;;;;;;;;4.67;4.67;;;;;-143.90;65.80;73721.16;4826335;28;102529;-74
2023/08/18 08:03:24;;;;;;;;;6.33;5.00;;;;;-143.90;70.61;73733.56;4861255;28;102550;-74
2023/08/18 08:05:51;;;;;;;;;12.67;11.67;;;;;-143.90;65.55;73770.78;4884155;28;102516;-74
2023/08/18 08:08:18;;;;;;;;;10.00;8.67;;;;;-143.90;68.24;73766.63;4822259;28;109915;-74
2023/08/18 08:10:45;;;;;;;;;9.00;9.00;;;;;-143.90;69.06;73772.84;4869527;28;102307;-74
2023/08/18 08:13:14;;;;;;;;;9.00;9.00;;;;;-143.90;67.02;73772.84;4862849;28;102337;-74
2023/08/18 08:15:45;;;;;;;;;8.00;7.00;;;;;-143.90;68.45;73762.50;4843550;28;104970;-74
2023/08/18 08:18:15;;;;;;;;;6.33;6.33;;;;;-143.90;68.10;73741.84;4877313;28;103253;-74
2023/08/18 08:20:43;;;;;;;;;6.33;5.00;;;;;-143.90;64.82;73737.69;4881298;28;102520;-74
2023/08/18 08:23:10;;;;;;;;;5.67;5.67;;;;;-143.90;64.79;73725.31;4895011;28;102620;-74
2023/08/18 08:25:41;;;;;;;;;4.67;4.00;;;;;-143.90;63.80;73721.16;4874663;28;102394;-74
2023/08/18 08:28:08;;;;;;;;;4.00;4.00;;;;;-143.90;67.14;73719.09;4871494;28;103713;-74
2023/08/18 08:30:36;;;;;;;;;6.00;5.00;;;;;-143.90;61.20;73754.25;4882669;28;102046;-74
2023/08/18 08:33:04;;;;;;;;;10.33;10.00;;;;;-143.90;65.98;73750.09;4889113;28;102134;-74
2023/08/18 08:35:32;;;;;;;;;8.33;8.33;;;;;-143.90;67.15;73733.56;4885346;28;102304;-75
2023/08/18 08:37:59;;;;;;;;;8.67;8.67;;;;;-143.90;63.75;73721.16;4885232;28;105390;-75
2023/08/18 08:40:26;;;;;;;;;12.33;12.00;;;;;-143.90;63.00;73708.78;4884470;28;102374;-74
2023/08/18 08:42:54;;;;;;;;;9.00;9.00;;;;;-143.90;65.46;73688.09;4888269;28;102124;-74
2023/08/18 08:45:22;;;;;;;;;9.00;8.67;;;;;-143.90;65.90;73683.97;4889807;28;102125;-74
2023/08/18 08:47:50;;;;;;;;;8.00;8.00;;;;;-143.90;64.04;73690.16;4876444;28;109709;-74
2023/08/18 08:50:18;;;;;;;;;5.33;5.00;;;;;-143.90;64.48;73675.69;4884867;28;102546;-74
2023/08/18 08:52:50;;;;;;;;;5.67;5.67;;;;;-143.90;64.19;73659.16;4889744;28;103491;-74
2023/08/18 08:55:23;;;;;;;;;8.00;8.00;;;;;-143.90;58.38;73675.69;4888110;28;102712;-75
2023/08/18 08:57:50;;;;;;;;;9.00;9.00;;;;;-143.90;59.71;73646.78;4887173;28;110734;-75
2023/08/18 09:00:17;;;;;;;;;8.33;7.67;;;;;-143.90;58.64;73628.16;4889895;28;102170;-74
2023/08/18 09:02:44;;;;;;;;;11.33;11.33;;;;;-143.90;56.23;73663.31;4890254;28;102288;-74
2023/08/18 09:05:11;;;;;;;;;9.00;8.33;;;;;-143.90;57.31;73638.50;4889855;28;102155;-74
2023/08/18 09:07:38;;;;;;;;;11.33;10.33;;;;;-143.90;59.77;73644.69;4889430;28;104484;-74
2023/08/18 09:10:06;;;;;;;;;13.00;12.00;;;;;-143.90;57.91;73655.03;4874852;28;102674;-75
2023/08/18 09:12:41;;;;;;;;;8.00;7.67;;;;;-143.90;59.88;73628.16;4894884;28;103711;-76
2023/08/18 09:15:09;;;;;;;;;10.67;10.00;;;;;-143.90;55.12;73669.50;4886863;28;102460;-74
2023/08/18 09:17:43;;;;;;;;;10.67;10.00;;;;;-143.90;57.93;73640.56;4887969;28;105057;-75
2023/08/18 09:20:12;;;;;;;;;9.00;8.00;;;;;-143.90;59.76;73617.84;4885458;28;102400;-75
2023/08/18 09:22:40;;;;;;;;;6.00;6.00;;;;;-143.90;59.33;73593.03;4889673;28;102828;-74
2023/08/18 09:25:12;;;;;;;;;5.67;5.67;;;;;-143.90;58.09;73570.31;4890731;28;102363;-74
2023/08/18 09:27:38;;;;;;;;;6.00;6.00;;;;;-143.90;58.54;73551.72;4889751;28;104032;-74
2023/08/18 09:30:06;;;;;;;;;5.00;5.00;;;;;-143.90;57.45;73537.25;4889239;28;102459;-74
2023/08/18 09:32:35;;;;;;;;;4.00;4.00;;;;;-143.90;57.26;73510.38;4892901;28;102006;-75
2023/08/18 09:35:03;;;;;;;;;7.00;7.00;;;;;-143.90;57.09;73516.56;4888945;28;102155;-75
2023/08/18 09:37:31;;;;;;;;;10.00;9.00;;;;;-143.90;58.49;73531.03;4888233;28;104522;-75
2023/08/18 09:39:58;;;;;;;;;11.33;10.00;;;;;-143.90;53.84;73549.63;4902931;28;102188;-75
2023/08/18 09:42:25;;;;;;;;;10.00;9.33;;;;;-143.90;55.70;73557.91;4890177;28;103013;-75
2023/08/18 09:44:53;;;;;;;;;11.00;10.67;;;;;-143.90;57.91;73562.03;4892968;28;102132;-75
2023/08/18 09:47:23;;;;;;;;;14.33;13.33;;;;;-143.90;55.95;73547.56;4887079;28;110464;-75
2023/08/18 09:49:51;;;;;;;;;9.00;9.00;;;;;-143.90;56.50;73535.19;4889081;28;102110;-75
2023/08/18 09:52:21;;;;;;;;;10.00;10.00;;;;;-143.90;55.68;73506.25;4886386;28;102085;-75
2023/08/18 09:55:11;;;;;;;;;10.00;10.00;;;;;-143.90;54.80;73512.44;4898046;28;102243;-74
2023/08/18 09:58:00;;;;;;;;;8.00;8.00;;;;;-143.90;55.90;73504.19;4888685;28;107899;-75
2023/08/18 10:00:28;;;;;;;;;7.67;7.67;;;;;-143.90;55.84;73491.78;4887116;28;102437;-75
2023/08/18 10:02:59;;;;;;;;;9.33;9.00;;;;;-143.90;56.79;73481.44;4888389;28;102846;-75
2023/08/18 10:05:27;;;;;;;;;8.67;8.67;;;;;-143.90;56.78;73473.19;4886692;28;103911;-75
2023/08/18 10:07:55;;;;;;;;;9.33;9.33;;;;;-143.90;53.46;73475.25;4888226;28;105486;-75
2023/08/18 10:10:22;;;;;;;;;7.67;7.67;;;;;-143.90;53.56;73456.66;4886131;28;103274;-75
2023/08/18 10:12:50;;;;;;;;;8.00;8.00;;;;;-143.90;53.36;73458.72;4886992;28;102164;-74
2023/08/18 10:15:22;;;;;;;;;6.33;6.00;;;;;-143.90;53.84;73444.25;4881263;28;102259;-79
2023/08/18 10:17:49;;;;;;;;;7.00;7.00;;;;;-143.90;53.21;73429.78;4883625;28;104003;-75
2023/08/18 10:20:16;;;;;;;;;9.33;9.00;;;;;-143.90;51.67;73431.84;4885373;28;103388;-75
2023/08/18 10:22:43;;;;;;;;;9.67;9.00;;;;;-143.90;55.12;73444.25;4874743;28;102599;-75
2023/08/18 10:25:23;;;;;;;;;15.00;13.00;;;;;-143.90;52.55;73438.03;4885375;28;102208;-75
2023/08/18 10:27:51;;;;;;;;;10.00;9.67;;;;;-143.90;53.02;73409.13;4885299;28;108613;-75
2023/08/18 10:30:17;;;;;;;;;11.00;9.00;;;;;-143.90;53.05;73386.38;4885663;28;103836;-76
2023/08/18 10:32:44;;;;;;;;;10.00;10.00;;;;;-143.90;50.31;73386.38;4897359;28;103360;-75
2023/08/18 10:35:24;;;;;;;;;12.33;11.33;;;;;-143.90;52.85;73402.91;4888323;28;102221;-75
2023/08/18 10:38:03;;;;;;;;;13.00;13.00;;;;;-143.90;53.85;73409.13;4888547;28;110878;-75
2023/08/18 10:40:31;;;;;;;;;18.00;16.00;;;;;-143.90;53.73;73390.53;4870459;28;102881;-75
2023/08/18 10:43:02;;;;;;;;;11.00;10.67;;;;;-143.90;54.18;73365.72;4887748;28;103044;-75
2023/08/18 10:45:30;;;;;;;;;8.67;8.67;;;;;-143.90;53.93;73340.94;4888390;28;102203;-75
2023/08/18 10:48:00;;;;;;;;;19.67;17.67;;;;;-143.90;53.47;73365.72;4872370;28;104206;-75
2023/08/18 10:50:39;;;;;;;;;16.67;14.33;;;;;-143.90;55.90;73357.47;4886894;28;102408;-75
2023/08/18 10:53:07;;;;;;;;;19.00;14.00;;;;;-143.90;53.36;73349.19;4884545;28;101948;-75
2023/08/18 10:55:34;;;;;;;;;16.00;16.00;;;;;-143.90;51.87;73347.13;4882811;28;102205;-75
2023/08/18 10:58:02;;;;;;;;;14.67;14.00;;;;;-143.90;53.31;73322.31;4881033;28;105490;-75
2023/08/18 11:00:33;;;;;;;;;13.33;11.33;;;;;-143.90;52.16;73312.00;4885697;28;104386;-74
2023/08/18 11:03:00;;;;;;;;;11.67;10.67;;;;;-143.90;50.60;73301.66;4883736;28;102474;-74
2023/08/18 11:05:32;;;;;;;;;11.00;10.00;;;;;-143.90;52.58;73293.41;4890508;28;102590;-74
2023/08/18 11:08:00;;;;;;;;;8.00;7.33;;;;;-143.90;51.69;73283.06;4887287;28;103979;-74
2023/08/18 11:10:27;;;;;;;;;10.33;10.33;;;;;-143.90;51.03;73312.00;4888072;28;102727;-75
2023/08/18 11:12:58;;;;;;;;;9.00;9.00;;;;;-143.90;53.93;73283.06;4892619;28;102619;-75
2023/08/18 11:15:26;;;;;;;;;12.33;9.33;;;;;-143.90;50.45;73303.72;4899871;28;102370;-74
2023/08/18 11:17:53;;;;;;;;;14.00;13.33;;;;;-143.90;52.85;73305.78;4884119;28;104192;-76
2023/08/18 11:20:21;;;;;;;;;10.67;10.00;;;;;-143.90;53.59;73287.19;4888272;28;102784;-77
2023/08/18 11:22:53;;;;;;;;;10.00;9.00;;;;;-143.90;50.89;73270.66;4887918;28;101955;-76
2023/08/18 11:25:24;;;;;;;;;7.67;6.67;;;;;-143.90;52.25;73241.75;4871415;28;102558;-81